»·PEaware :: AAL9970 KGEG-KPAE

AAL9970 :: KGEG-KPAE

FLIGHT INFORMATION

Flight Status: Arrived
Operator:
American Airlines
More flights by this operator :: More flights under this callsign
Pilot: Erik S. (14620)
Aircraft: AIRBUS A330
(A330)
More flights by this aircraft type
Origin: KGEG Spokane Intl
United States
Destination: KPAE Snohomish Co
United States
More flights between these airports :: More routes between these airports
Route: FRZBY DEVYN2
File this flight plan on PilotEdge
Remarks:
Altitude:
(Current/Filed)
24,000ft
Speed:
(Current/Filed)
348kts
Departed: 21-May-18 05:58 PM
Arrived: 21-May-18 06:41 PM
Distance/Time
Traveled:
192nm/0:43
Distance/Time
To Go:
Arrived

Flight Plot

Page will automatically refresh every two minutes.

Flight plan parsing failed; only flown route is shown


Map Options




Map Legend


Flown Route
Filed Route
Departure Airport
Arrival Airport
Navaid (VOR, NDB)
Fix

Horizontal Profiles

Position Reports

Time Latitude Longitude Heading Altitude Ground
Speed
21-May-18 17:25 47.628257 -117.528594 343 2397ft 0kts
21-May-18 17:26 47.628257 -117.528594 343 2397ft 0kts
21-May-18 17:27 47.628257 -117.528594 343 2397ft 0kts
21-May-18 17:28 47.628257 -117.528594 343 2397ft 0kts
21-May-18 17:29 47.628257 -117.528594 343 2397ft 0kts
21-May-18 17:30 47.628257 -117.528594 343 2397ft 0kts
21-May-18 17:31 47.628257 -117.528594 343 2397ft 0kts
21-May-18 17:32 47.628257 -117.528594 343 2397ft 0kts
21-May-18 17:33 47.628257 -117.528594 343 2397ft 0kts
21-May-18 17:34 47.628257 -117.528594 343 2397ft 0kts
21-May-18 17:35 47.628257 -117.528594 343 2397ft 0kts
21-May-18 17:36 47.628257 -117.528594 343 2397ft 0kts
21-May-18 17:37 47.628257 -117.528594 343 2397ft 0kts
21-May-18 17:38 47.628257 -117.528594 343 2397ft 0kts
21-May-18 17:39 47.628257 -117.528594 343 2397ft 0kts
21-May-18 17:40 47.628257 -117.528594 343 2397ft 0kts
21-May-18 17:41 47.628257 -117.528594 343 2397ft 0kts
21-May-18 17:42 47.628257 -117.528594 343 2397ft 0kts
21-May-18 17:43 47.628257 -117.528594 343 2397ft 0kts
21-May-18 17:44 47.628257 -117.528594 343 2397ft 0kts
21-May-18 17:45 47.628257 -117.528594 343 2397ft 0kts
21-May-18 17:46 47.628257 -117.528594 343 2397ft 0kts
21-May-18 17:47 47.628224 -117.528579 345 2397ft 2kts
21-May-18 17:48 47.627702 -117.528878 53 2397ft 2kts
21-May-18 17:49 47.627627 -117.529020 50 2397ft 0kts
21-May-18 17:50 47.627627 -117.529020 50 2397ft 0kts
21-May-18 17:51 47.627627 -117.529020 50 2397ft 0kts
21-May-18 17:52 47.627627 -117.529020 50 2397ft 0kts
21-May-18 17:53 47.627627 -117.529020 50 2397ft 0kts
21-May-18 17:54 47.627706 -117.528280 101 2397ft 2kts
21-May-18 17:55 47.629793 -117.524475 49 2397ft 17kts
21-May-18 17:56 47.631958 -117.521194 45 2397ft 17kts
21-May-18 17:57 47.631495 -117.518898 139 2397ft 17kts
21-May-18 17:58 47.620129 -117.534690 226 2529ft 162kts
21-May-18 17:59 47.581084 -117.586949 219 4602ft 212kts
21-May-18 18:00 47.532880 -117.641274 219 7000ft 228kts
21-May-18 18:01 47.472765 -117.709806 218 9982ft 293kts
21-May-18 18:02 47.399549 -117.799061 234 11795ft 388kts
21-May-18 18:03 47.412358 -117.942680 317 15876ft 391kts
21-May-18 18:04 47.516012 -117.983487 342 19557ft 404kts
21-May-18 18:05 47.622636 -118.037551 340 22811ft 416kts
21-May-18 18:06 47.725774 -118.112881 312 24059ft 422kts
21-May-18 18:07 47.760463 -118.283555 282 24003ft 443kts
21-May-18 18:08 47.775371 -118.464072 280 24000ft 443kts
21-May-18 18:09 47.789087 -118.645514 280 23994ft 444kts
21-May-18 18:10 47.802176 -118.823171 279 23981ft 444kts
21-May-18 18:11 47.815305 -119.004978 279 23981ft 442kts
21-May-18 18:12 47.828107 -119.186578 278 23977ft 442kts
21-May-18 18:13 47.840616 -119.368053 278 23973ft 442kts
21-May-18 18:14 47.852595 -119.546474 278 23971ft 442kts
21-May-18 18:15 47.864704 -119.726743 278 23970ft 442kts
21-May-18 18:16 47.878361 -119.907812 279 23965ft 442kts
21-May-18 18:17 47.890914 -120.089955 278 23963ft 442kts
21-May-18 18:18 47.902794 -120.272168 278 23963ft 442kts
21-May-18 18:19 47.914797 -120.451923 278 22682ft 429kts
21-May-18 18:20 47.926744 -120.626081 278 20536ft 416kts
21-May-18 18:21 47.937454 -120.785789 277 18505ft 405kts
21-May-18 18:22 47.948270 -120.950370 277 16370ft 394kts
21-May-18 18:23 47.958527 -121.109689 275 14280ft 381kts
21-May-18 18:24 47.968154 -121.262967 274 12371ft 362kts
21-May-18 18:25 47.976705 -121.398509 275 10978ft 290kts
21-May-18 18:26 47.984139 -121.511367 275 10498ft 276kts
21-May-18 18:27 47.991254 -121.620681 275 10031ft 273kts
21-May-18 18:28 47.983551 -121.729213 257 8913ft 259kts
21-May-18 18:29 47.966913 -121.827292 236 7791ft 241kts
21-May-18 18:30 47.919245 -121.894591 222 6713ft 228kts
21-May-18 18:31 47.871919 -121.956896 222 5687ft 225kts
21-May-18 18:32 47.825358 -122.017370 222 4678ft 222kts
21-May-18 18:33 47.779566 -122.076668 222 3671ft 213kts
21-May-18 18:34 47.745752 -122.139582 275 3043ft 193kts
21-May-18 18:35 47.746874 -122.219502 271 2976ft 183kts
21-May-18 18:36 47.753621 -122.276144 338 2689ft 122kts
21-May-18 18:37 47.787769 -122.280387 355 2267ft 123kts
21-May-18 18:38 47.821600 -122.282516 356 1664ft 121kts
21-May-18 18:39 47.854834 -122.284700 359 1080ft 117kts
21-May-18 18:40 47.888368 -122.285106 358 833ft 121kts
21-May-18 18:41 47.907939 -122.285511 359 617ft 35kts
21-May-18 18:42 47.908810 -122.283068 114 617ft 5kts
21-May-18 18:43 47.907699 -122.279142 134 617ft 8kts
21-May-18 18:44 47.907679 -122.279112 135 617ft 0kts
21-May-18 18:45 47.907679 -122.279112 135 617ft 0kts
21-May-18 18:46 47.907679 -122.279112 135 617ft 0kts
21-May-18 18:47 47.907679 -122.279112 135 617ft 0kts
21-May-18 18:48 47.907679 -122.279112 135 617ft 0kts
21-May-18 18:49 47.907679 -122.279112 135 617ft 0kts
21-May-18 18:50 47.907679 -122.279112 135 617ft 0kts
21-May-18 18:51 47.907679 -122.279112 135 617ft 0kts
21-May-18 18:52 47.907679 -122.279112 135 617ft 0kts
21-May-18 18:53 47.907679 -122.279112 135 617ft 0kts
21-May-18 18:54 47.907679 -122.279112 135 617ft 0kts
21-May-18 18:55 47.907679 -122.279112 135 617ft 0kts
21-May-18 18:56 47.907679 -122.279112 135 617ft 0kts

Navigation Log

Ident Type
Flight plan parsing failed, navigation log unavailable